Ariel, WA

6:50 AM PDT on September 19, 2014 (GMT -0700)
West Yale Valley | Change Station
CLOSE
Current Station
Personal Weather Station
Location: Ariel, WA
Elevation: 455 ft
Nearby Weather Stations

Elev 455 ft 46.00 °N, 122.40 °W | Updated 1 minute ago

Mostly Cloudy
Mostly Cloudy
57.0 °F
Feels Like 57.0 °F
N
0.0
Wind Variable Wind from SSE
Gusts 0.0 mph

Today
High -- | Low -- °F
--% Chance of Precip.
Yesterday
High -- | Low -- °F
Precip. -- in
6:53 AM 7:13 PM
Waning Crescent, 19% visible
Pressure 30.10 in
Visibility 8.0 miles
Clouds Mostly Cloudy 10000 ft
Dew Point 44 °F
Humidity 62%
Rainfall 0.00 in
Snow Depth 0 in , 0 in , 0 in
UV 0 out of 12
Pollen 2.20 out of 12
Air Quality Not available.
Flu Activity Not available.
METAR KKLS 191335Z AUTO 00000KT 8SM BKN100 13/11 A3010 RMK AO1

More Conditions Fewer Conditions

Pressure 30.10 in
Visibility 8.0 miles
Clouds Mostly Cloudy 10000 ft
Dew Point 44 °F
Humidity 62%
Rainfall 0.00 in
Snow Depth 0 in , 0 in , 0 in
UV 0 out of 12
Pollen 2.20 out of 12
Air Quality Not available.
Flu Activity Not available.
METAR KKLS 191335Z AUTO 00000KT 8SM BKN100 13/11 A3010 RMK AO1

More Conditions Fewer Conditions

10-Day Weather Forecast

Almanac

Astronomy

Sep. 19, 2014 Rise Set
Actual Time 6:53 AM PDT 7:13 PM PDT
Civil Twilight 6:23 AM PDT 7:42 PM PDT
Nautical Twilight 5:47 AM PDT 8:18 PM PDT
Astronomical Twilight 5:11 AM PDT 8:54 PM PDT
Moon 2:32 AM PDT 4:54 PM PDT
Length of Visible Light 13h 19m
Length of Day
12h 19m
Tomorrow will be 3m 13s shorter.
Waning Crescent, 19% of the Moon is Illuminated
Today
Waning Crescent
Sep 24
New
Oct 1
First Quarter
Oct 8
Full
Oct 15
Last Quarter

Today's Extremes

State Highs State Lows

Community

WunderPhotos

Upload Photos

1,754,608 photos uploaded!

WunderBlogs® & News

Nearby

Snow Depth

Station Depth Elevation
Pope Ridge 0 in 3540 ft
Grouse Camp 0 in 5380 ft
Spencer Meadow 0 in 3400 ft
Touchet 0 in 5530 ft
Sourdough Gulch 0 in 4000 ft

Earthquake Activity

City Distance Mag. Time & Date
Seabeck, Washington 111 miles 4.0 3:06 AM PDT
2014-09-17
Morton, Washington 23 miles 3.0 5:43 AM PDT
2014-09-16
Minimum magnitude displayed is 2.5.

Coastal Water Temperatures

Place Temperature
No Stations Reporting

Nearby Weather Stations